• Join FlightAware (Why Join?)
  • Login
  • US Flag 
02:26AM EDT


 

Airport Tracker/Info


-or-


 

Live Flight TrackerFlight Track Log ✈ TRS384 ✈ 06-Jun-2014 ✈ KSTL - KATL

Flight Track Log - Related Links

Times and Time Zones

All times are in EDT time to prevent confusion due to time zone crossing. See the TRS384 flight status page for this flight to view local times or setup timezone preferences in your user account.

Time Position Orientation Groundspeed Altitude Reporting Facility
EDT Latitude Longitude Course Direction KTS MPH feet Rate Location/Type
10:32AM 38.7167 -90.3000 130° Southeast 186 214 2,200  Level Gateway (St. Louis) TRACON
10:33AM 38.6833 -90.2500 125° Southeast 250 288 3,700 1,680 Climbing Gateway (St. Louis) TRACON
10:34AM 38.6197 -90.1600 132° Southeast 280 322 6,100 2,220 Climbing Kansas City Center
10:35AM 38.5558 -90.0661 131° Southeast 289 333 9,000 2,400 Climbing Kansas City Center
10:36AM 38.4981 -89.9828 132° Southeast 299 344 11,100 1,620 Climbing Kansas City Center
10:37AM 38.4372 -89.8903 130° Southeast 346 398 12,300 1,260 Climbing Kansas City Center
10:38AM 38.3639 -89.7794 130° Southeast 379 436 13,800 1,500 Climbing Kansas City Center
10:39AM 38.2997 -89.6825 130° Southeast 394 453 15,500 1,620 Climbing Kansas City Center
10:40AM 38.2256 -89.5736 131° Southeast 403 464 17,200 1,740 Climbing Kansas City Center
10:42AM 38.1500 -89.4625 131° Southeast 415 478 19,100 1,620 Climbing Kansas City Center
10:43AM 38.0706 -89.3453 131° Southeast 436 502 20,600 1,680 Climbing Kansas City Center
10:44AM 37.9703 -89.1994 131° Southeast 455 524 22,600 1,620 Climbing Kansas City Center
10:45AM 37.8861 -89.0742 130° Southeast 466 536 24,000 1,500 Climbing Kansas City Center
10:46AM 37.8064 -88.9578 131° Southeast 473 544 25,700 1,440 Climbing Kansas City Center
10:47AM 37.7172 -88.8300 131° Southeast 476 548 27,000 600 Climbing Kansas City Center
10:48AM 37.6106 -88.6856 133° Southeast 478 550 27,000  Level Memphis Center
10:49AM 37.5222 -88.5611 132° Southeast 478 550 27,000  Level Memphis Center
10:50AM 37.4342 -88.4375 132° Southeast 477 549 27,000  Level Memphis Center
10:51AM 37.3453 -88.3158 133° Southeast 475 547 27,000  Level Memphis Center
10:52AM 37.2567 -88.1919 132° Southeast 475 547 27,000  Level Memphis Center
10:53AM 37.1553 -88.0528 132° Southeast 474 545 27,000  Level Memphis Center
10:54AM 37.0664 -87.9306 132° Southeast 472 543 27,000  Level Memphis Center
10:55AM 36.9781 -87.8100 133° Southeast 471 542 27,000  Level Memphis Center
10:56AM 36.8953 -87.6822 129° Southeast 470 541 27,000  Level Memphis Center
10:57AM 36.8314 -87.5378 119° Southeast 470 541 27,000  Level Memphis Center
10:58AM 36.7656 -87.3950 120° Southeast 470 541 27,000  Level Memphis Center
10:59AM 36.7003 -87.2528 120° Southeast 470 541 27,000  Level Memphis Center
11:00AM 36.6225 -87.0875 120° Southeast 470 541 27,000  Level Memphis Center
11:01AM 36.5564 -86.9461 120° Southeast 469 540 27,000  Level Memphis Center
11:02AM 36.4908 -86.8033 120° Southeast 468 539 27,000  Level Memphis Center
11:03AM 36.4217 -86.6608 121° Southeast 468 539 27,000  Level Memphis Center
11:04AM 36.3542 -86.5214 121° Southeast 467 537 27,000  Level Memphis Center
11:05AM 36.2875 -86.3817 121° Southeast 465 535 27,000  Level Memphis Center
11:06AM 36.2200 -86.2414 121° Southeast 466 536 27,000  Level Memphis Center
11:07AM 36.1528 -86.1025 121° Southeast 466 536 27,000  Level Memphis Center
11:08AM 36.0889 -85.9597 119° Southeast 467 537 27,000  Level Memphis Center
11:09AM 36.0256 -85.8089 117° Southeast 467 537 27,000  Level Memphis Center
11:10AM 35.9300 -85.7078 139° Southeast 465 535 27,000  Level Memphis Center
11:11AM 35.8161 -85.6406 154° Southeast 459 528 27,000  Level Memphis Center
11:12AM 35.6697 -85.6606 186° South 444 511 27,000  Level Memphis Center
11:14AM 35.5497 -85.6947 193° South 443 510 27,000  Level Memphis Center
11:15AM 35.4281 -85.6658 169° South 455 524 27,000  Level Memphis Center
11:16AM 35.3092 -85.6078 158° South 458 527 27,000  Level Memphis Center
11:17AM 35.1917 -85.5494 158° South 458 527 27,000  Level Memphis Center
11:18AM 35.0500 -85.4819 159° South 458 527 27,000  Level Memphis Center
11:19AM 34.9314 -85.4244 158° South 458 527 27,000  Level Memphis Center
11:20AM 34.8097 -85.3669 159° South 458 527 27,000 -360 Level Atlanta Center
11:21AM 34.6956 -85.3119 158° South 458 527 26,300 -1,380 Descending Atlanta Center
11:22AM 34.5772 -85.2547 158° South 458 527 24,300 -2,220 Descending Atlanta Center
11:23AM 34.4650 -85.2003 158° South 451 519 21,900 -2,400 Descending Atlanta Center
11:24AM 34.3550 -85.1508 160° South 439 505 19,600 -2,340 Descending Atlanta Center
11:25AM 34.2447 -85.0967 158° South 429 494 17,300 -2,280 Descending Atlanta Center
11:26AM 34.1367 -85.0478 159° South 429 494 15,100 -1,680 Descending Atlanta Center
11:27AM 34.0475 -84.9739 146° Southeast 393 452 14,000 -780 Descending Atlanta Center
11:28AM 33.9731 -84.8806 134° Southeast 393 452 13,600 -600 Descending Atlanta Center
11:29AM 33.8983 -84.7847 133° Southeast 388 447 12,800 -960 Descending Atlanta Center
11:30AM 33.8333 -84.7000 133° Southeast 380 437 11,900 -480 Descending Atlanta TRACON
11:31AM 33.7667 -84.6167 134° Southeast 308 354 12,000  Climbing Atlanta TRACON
11:32AM 33.7333 -84.5333 116° Southeast 275 316 11,900 -1,080 Descending Atlanta TRACON
11:33AM 33.7333 -84.4500 90° East 282 325 9,900 -2,460 Descending Atlanta TRACON
11:34AM 33.7333 -84.3667 90° East 266 306 7,300 -2,340 Descending Atlanta TRACON
11:35AM 33.7333 -84.2833 90° East 252 290 5,300 -1,800 Descending Atlanta TRACON
11:36AM 33.7333 -84.2000 90° East 243 280 3,700 -1,200 Descending Atlanta TRACON
11:37AM 33.6833 -84.1833 164° South 191 220 3,000 -360 Descending Atlanta TRACON
11:38AM 33.6500 -84.2333 231° Southwest 177 204 3,000 -120 Level Atlanta TRACON
11:39AM 33.6500 -84.2833 270° West 173 199 2,800 -480 Descending Atlanta TRACON
11:39AM 33.6500 -84.3333 270° West 153 176 2,100 -780 Descending Atlanta TRACON
11:41AM 33.6500 -84.4000 270° West 145 167 1,300 -780 Descending Atlanta TRACON
11:43AM 33.6333 -84.4167 241° Southwest  Level FlightAware Approximate